Time;durP1;ratioP1;P1;durP2;ratioP2;P2;SDS_P1;SDS_P2;PMS_P1;PMS_P2;Temp;Humidity;BMP_temperature;BMP_pressure;BME280_temperature;BME280_humidity;BME280_pressure;Samples;Min_cycle;Max_cycle;Signal;HPM_P1;HPM_P2
2024/01/08 00:02:16;;;;;;;3.40;2.70;;;0.70;99.90;;;;;;4991343;28;20234;-83
2024/01/08 00:04:42;;;;;;;5.60;3.20;;;;;;;;;;4994545;28;20525;-83
2024/01/08 00:07:07;;;;;;;3.40;2.87;;;0.50;99.90;;;;;;4996710;28;20632;-82
2024/01/08 00:09:33;;;;;;;2.93;2.63;;;0.40;99.90;;;;;;4996724;28;20429;-82
2024/01/08 00:11:58;;;;;;;3.03;2.73;;;0.60;99.90;;;;;;4990826;28;20195;-82
2024/01/08 00:14:24;;;;;;;3.33;2.70;;;1.00;99.90;;;;;;4990319;28;20242;-82
2024/01/08 00:16:49;;;;;;;3.10;2.80;;;0.90;99.90;;;;;;4985461;28;20192;-83
2024/01/08 00:19:16;;;;;;;3.10;2.37;;;0.50;99.90;;;;;;4985537;28;20187;-82
2024/01/08 00:21:42;;;;;;;6.18;3.00;;;0.60;99.90;;;;;;4996627;28;20668;-82
2024/01/08 00:24:08;;;;;;;3.37;2.70;;;0.50;99.90;;;;;;4994224;28;20665;-82
2024/01/08 00:26:34;;;;;;;3.37;3.07;;;0.50;99.90;;;;;;4989019;28;20211;-83
2024/01/08 00:28:59;;;;;;;2.90;2.50;;;1.40;99.90;;;;;;5003282;28;20196;-83
2024/01/08 00:31:25;;;;;;;3.03;2.70;;;0.30;99.90;;;;;;4987592;28;20231;-83
2024/01/08 00:33:50;;;;;;;3.20;2.70;;;0.40;99.90;;;;;;4996572;28;20210;-82
2024/01/08 00:36:16;;;;;;;3.40;3.10;;;0.90;99.90;;;;;;4990116;28;20192;-81
2024/01/08 00:38:42;;;;;;;3.13;2.83;;;;;;;;;;5008621;28;20680;-82
2024/01/08 00:41:09;;;;;;;2.75;2.55;;;0.50;99.90;;;;;;4973747;28;20188;-83
2024/01/08 00:43:34;;;;;;;2.90;2.60;;;0.40;99.90;;;;;;4992445;28;20264;-82
2024/01/08 00:46:00;;;;;;;3.67;2.60;;;0.20;99.90;;;;;;4975702;28;20223;-82
2024/01/08 00:48:26;;;;;;;3.17;2.90;;;;;;;;;;4992148;28;20680;-82
2024/01/08 00:50:54;;;;;;;3.10;2.80;;;0.30;99.90;;;;;;4986928;28;20272;-82
2024/01/08 00:53:20;;;;;;;2.60;2.40;;;0.40;99.90;;;;;;4988404;28;20212;-82
2024/01/08 00:55:45;;;;;;;3.13;2.80;;;0.80;99.90;;;;;;4984791;28;20204;-82
2024/01/08 00:58:11;;;;;;;2.87;2.57;;;0.40;99.90;;;;;;4992438;28;20191;-82
2024/01/08 01:00:36;;;;;;;3.03;2.73;;;0.30;99.90;;;;;;4990034;28;20196;-82
2024/01/08 01:03:02;;;;;;;3.53;3.13;;;0.40;99.90;;;;;;5008061;28;20184;-82
2024/01/08 01:05:27;;;;;;;2.87;2.67;;;0.40;99.90;;;;;;4997029;28;20219;-82
2024/01/08 01:07:53;;;;;;;4.67;3.33;;;0.40;99.90;;;;;;4987064;28;20184;-82
2024/01/08 01:10:19;;;;;;;4.17;3.53;;;0.40;99.90;;;;;;4988009;28;20184;-82
2024/01/08 01:12:44;;;;;;;4.60;3.17;;;0.50;99.90;;;;;;4985006;28;20193;-83
2024/01/08 01:15:10;;;;;;;4.87;3.53;;;0.50;99.90;;;;;;4990222;28;20273;-81
2024/01/08 01:17:36;;;;;;;4.07;2.83;;;0.40;99.90;;;;;;4979577;28;20181;-82
2024/01/08 01:20:03;;;;;;;4.10;3.40;;;0.40;99.90;;;;;;4974478;28;20666;-84
2024/01/08 01:22:29;;;;;;;3.83;3.10;;;;;;;;;;4987403;28;20215;-81
2024/01/08 01:24:55;;;;;;;3.50;3.20;;;;;;;;;;4988954;28;20223;-82
2024/01/08 01:27:20;;;;;;;3.70;3.00;;;0.30;99.90;;;;;;4985409;28;20192;-81
2024/01/08 01:29:46;;;;;;;3.80;3.33;;;0.30;99.90;;;;;;4980809;28;20461;-82
2024/01/08 01:32:13;;;;;;;3.43;3.13;;;0.50;99.90;;;;;;4998990;28;20191;-81
2024/01/08 01:34:39;;;;;;;4.30;3.72;;;0.50;99.90;;;;;;4991881;28;20229;-82
2024/01/08 01:37:05;;;;;;;3.05;2.70;;;0.70;99.90;;;;;;4995950;28;20653;-82
2024/01/08 01:39:32;;;;;;;3.53;3.20;;;0.70;99.90;;;;;;4992879;28;20225;-82
2024/01/08 01:41:58;;;;;;;3.75;3.20;;;0.50;99.90;;;;;;4996297;28;20537;-81
2024/01/08 01:44:24;;;;;;;5.33;3.20;;;0.70;99.90;;;;;;4989663;28;20219;-82
2024/01/08 01:46:51;;;;;;;3.93;3.17;;;0.60;99.90;;;;;;4992474;28;20208;-82
2024/01/08 01:49:19;;;;;;;3.42;2.80;;;0.40;99.90;;;;;;4993350;28;20230;-82
2024/01/08 01:51:46;;;;;;;4.78;3.70;;;0.30;99.70;;;;;;4994228;28;20184;-82
2024/01/08 01:54:22;;;;;;;3.30;3.00;;;0.50;99.90;;;;;;4992398;28;20246;-82
2024/01/08 01:56:51;;;;;;;4.63;3.75;;;0.50;99.90;;;;;;5003765;28;20211;-82
2024/01/08 01:59:19;;;;;;;3.95;3.10;;;0.90;99.90;;;;;;5002122;28;20642;-82
2024/01/08 02:01:46;;;;;;;6.40;3.28;;;0.80;99.90;;;;;;4991530;28;20196;-82
2024/01/08 02:04:13;;;;;;;3.50;3.20;;;0.40;99.90;;;;;;4985158;28;20205;-82
2024/01/08 02:06:40;;;;;;;3.00;2.70;;;0.50;99.90;;;;;;4995028;28;20188;-82
2024/01/08 02:09:10;;;;;;;3.47;3.17;;;0.70;99.90;;;;;;4989492;28;20747;-82
2024/01/08 02:11:35;;;;;;;3.30;3.00;;;0.50;99.90;;;;;;4991266;28;20192;-82
2024/01/08 02:14:02;;;;;;;4.00;3.60;;;0.30;99.90;;;;;;5006725;28;20271;-81
2024/01/08 02:16:28;;;;;;;3.38;2.95;;;0.60;99.80;;;;;;4996420;28;20192;-82
2024/01/08 02:18:53;;;;;;;5.17;3.87;;;0.90;99.90;;;;;;4991269;28;20255;-82
2024/01/08 02:21:19;;;;;;;4.30;3.37;;;0.60;99.90;;;;;;4980595;28;20184;-82
2024/01/08 02:23:46;;;;;;;4.20;3.70;;;0.40;99.80;;;;;;4996554;28;20573;-82
2024/01/08 02:26:13;;;;;;;3.38;3.08;;;0.50;99.90;;;;;;4997090;28;20215;-82
2024/01/08 02:28:38;;;;;;;3.83;3.45;;;0.40;99.90;;;;;;5000527;28;20184;-82
2024/01/08 02:31:04;;;;;;;4.37;3.90;;;0.70;99.90;;;;;;4994280;28;20667;-82
2024/01/08 02:33:29;;;;;;;2.83;2.50;;;0.60;99.90;;;;;;4983689;28;20493;-83
2024/01/08 02:35:57;;;;;;;4.47;3.73;;;0.40;99.70;;;;;;4990572;28;20275;-82
2024/01/08 02:38:23;;;;;;;4.15;3.53;;;0.60;99.90;;;;;;4993079;28;20706;-82
2024/01/08 02:40:48;;;;;;;3.30;3.00;;;0.50;99.90;;;;;;4984920;28;20188;-82
2024/01/08 02:43:14;;;;;;;4.13;3.60;;;0.60;99.90;;;;;;4986391;28;20551;-82
2024/01/08 02:45:39;;;;;;;4.50;3.77;;;0.40;99.90;;;;;;4976856;28;20223;-82
2024/01/08 02:48:05;;;;;;;4.83;3.67;;;0.60;99.90;;;;;;4988768;28;20177;-82
2024/01/08 02:50:31;;;;;;;5.45;3.50;;;0.50;99.90;;;;;;4993845;28;20191;-82
2024/01/08 02:52:56;;;;;;;4.10;3.70;;;1.00;99.90;;;;;;4991367;28;20212;-82
2024/01/08 02:55:22;;;;;;;3.93;3.50;;;0.50;99.90;;;;;;4981013;28;20211;-82
2024/01/08 02:57:47;;;;;;;7.40;3.90;;;1.00;99.90;;;;;;4982786;28;20206;-83
2024/01/08 03:00:13;;;;;;;4.33;3.93;;;0.80;99.90;;;;;;4980994;28;20583;-82
2024/01/08 03:02:39;;;;;;;4.85;4.10;;;0.70;99.90;;;;;;4987919;28;20192;-83
2024/01/08 03:05:05;;;;;;;5.13;3.93;;;0.90;99.90;;;;;;4987574;28;20597;-83
2024/01/08 03:07:30;;;;;;;4.23;3.93;;;0.70;99.90;;;;;;4989360;28;20530;-83
2024/01/08 03:09:59;;;;;;;5.53;4.47;;;0.80;99.90;;;;;;4987967;28;20438;-83
2024/01/08 03:12:25;;;;;;;4.72;4.00;;;1.10;99.90;;;;;;4984336;28;20278;-83
2024/01/08 03:14:52;;;;;;;4.80;3.90;;;1.40;99.90;;;;;;4988542;28;20349;-83
2024/01/08 03:17:17;;;;;;;4.40;3.35;;;1.00;99.90;;;;;;4969426;28;20455;-83
2024/01/08 03:19:43;;;;;;;4.37;3.97;;;0.80;99.50;;;;;;4991437;28;20187;-83
2024/01/08 03:22:09;;;;;;;4.10;3.60;;;;;;;;;;4982973;28;20260;-83
2024/01/08 03:24:36;;;;;;;4.70;3.60;;;0.80;98.80;;;;;;5003727;28;20215;-83
2024/01/08 03:27:02;;;;;;;4.70;4.07;;;1.30;99.20;;;;;;4985553;28;20181;-83
2024/01/08 03:29:28;;;;;;;5.20;3.72;;;0.90;99.30;;;;;;4985350;28;20184;-83
2024/01/08 03:31:54;;;;;;;4.22;3.83;;;1.10;99.30;;;;;;4987225;28;20207;-82
2024/01/08 03:34:20;;;;;;;5.90;2.77;;;0.80;98.70;;;;;;4987081;28;20670;-82
2024/01/08 03:36:47;;;;;;;3.87;3.47;;;0.90;98.90;;;;;;4987947;28;20861;-82
2024/01/08 03:39:13;;;;;;;3.90;3.60;;;0.80;99.20;;;;;;5001919;23;20231;-85
2024/01/08 03:41:42;;;;;;;4.07;3.65;;;0.40;98.90;;;;;;4979286;28;20672;-85
2024/01/08 03:44:09;;;;;;;4.30;3.90;;;;;;;;;;4985921;28;20413;-85
2024/01/08 03:46:35;;;;;;;4.93;3.92;;;0.50;99.10;;;;;;4990252;28;20220;-85
2024/01/08 03:49:02;;;;;;;3.70;3.40;;;0.00;99.40;;;;;;4965816;28;20192;-85
2024/01/08 03:51:27;;;;;;;4.20;3.80;;;1.10;99.90;;;;;;4979212;28;20200;-85
2024/01/08 03:53:53;;;;;;;4.43;3.67;;;0.60;99.30;;;;;;4973164;28;20184;-85
2024/01/08 03:56:19;;;;;;;4.20;3.73;;;0.20;99.80;;;;;;4975098;28;20223;-85
2024/01/08 03:58:45;;;;;;;3.87;3.43;;;;;;;;;;4986202;28;20444;-85
2024/01/08 04:01:11;;;;;;;5.80;4.05;;;0.60;99.60;;;;;;4983360;28;20189;-85
2024/01/08 04:03:37;;;;;;;4.15;3.75;;;1.60;99.90;;;;;;4972833;28;20647;-85
2024/01/08 04:06:03;;;;;;;3.50;3.00;;;0.50;99.90;;;;;;4971582;28;20228;-85
2024/01/08 04:08:29;;;;;;;4.30;3.90;;;;;;;;;;4967281;28;20445;-85
2024/01/08 04:10:55;;;;;;;3.45;3.10;;;0.40;99.10;;;;;;4973040;28;20450;-85
2024/01/08 04:13:20;;;;;;;3.47;3.17;;;1.50;99.90;;;;;;4969366;28;21092;-85
2024/01/08 04:15:46;;;;;;;4.10;3.43;;;0.00;99.90;;;;;;4971039;28;20209;-85
2024/01/08 04:18:13;;;;;;;4.63;3.40;;;0.00;99.90;;;;;;4973002;28;20193;-85
2024/01/08 04:20:39;;;;;;;3.72;3.40;;;1.30;99.90;;;;;;4965510;28;20192;-86
2024/01/08 04:23:05;;;;;;;3.75;3.20;;;;;;;;;;4967965;28;20728;-85
2024/01/08 04:25:30;;;;;;;3.40;3.10;;;0.60;99.20;;;;;;4968029;28;20681;-85
2024/01/08 04:27:56;;;;;;;4.43;3.80;;;;;;;;;;4976911;28;20235;-85
2024/01/08 04:30:22;;;;;;;3.67;3.38;;;0.50;99.60;;;;;;4984177;28;20239;-85
2024/01/08 04:32:48;;;;;;;3.60;3.10;;;;;;;;;;4984657;28;20189;-85
2024/01/08 04:35:13;;;;;;;4.35;3.47;;;0.80;99.30;;;;;;4976789;28;20204;-85
2024/01/08 04:37:40;;;;;;;3.73;3.30;;;0.30;99.20;;;;;;4976296;28;20256;-85
2024/01/08 04:40:07;;;;;;;3.97;3.33;;;0.10;99.40;;;;;;4974356;28;20336;-85
2024/01/08 04:42:33;;;;;;;4.68;3.45;;;0.30;99.70;;;;;;4972047;28;20670;-85
2024/01/08 04:44:58;;;;;;;3.10;2.90;;;0.00;99.50;;;;;;4971585;28;20216;-85
2024/01/08 04:47:24;;;;;;;3.97;3.10;;;;;;;;;;4978977;28;20444;-85
2024/01/08 04:49:50;;;;;;;3.47;3.17;;;0.50;98.70;;;;;;4971758;28;20189;-86
2024/01/08 04:52:16;;;;;;;4.03;3.63;;;;;;;;;;4969536;28;20192;-85
2024/01/08 04:54:42;;;;;;;5.03;3.50;;;0.30;99.00;;;;;;4967262;28;20495;-85
2024/01/08 04:57:08;;;;;;;4.43;3.50;;;1.00;99.90;;;;;;4970705;28;20185;-86
2024/01/08 04:59:40;;;;;;;4.85;2.60;;;-0.50;99.10;;;;;;4969099;28;20546;-86
2024/01/08 05:02:05;;;;;;;4.43;3.75;;;-0.50;98.80;;;;;;4965776;28;20489;-86
2024/01/08 05:04:31;;;;;;;3.90;3.60;;;;;;;;;;4964754;28;20208;-86
2024/01/08 05:06:57;;;;;;;4.10;3.70;;;0.20;99.30;;;;;;4960713;28;20184;-86
2024/01/08 05:09:23;;;;;;;5.20;3.90;;;2.00;99.90;;;;;;4967387;28;20184;-86
2024/01/08 05:11:49;;;;;;;5.38;4.30;;;0.50;99.90;;;;;;4960448;28;20193;-86
2024/01/08 05:14:15;;;;;;;4.43;4.03;;;;;;;;;;4962679;28;20715;-86
2024/01/08 05:16:40;;;;;;;5.32;3.83;;;0.70;99.60;;;;;;4971297;28;20184;-86
2024/01/08 05:19:06;;;;;;;4.13;3.83;;;0.40;99.80;;;;;;4965949;28;20188;-87
2024/01/08 05:21:32;;;;;;;4.50;3.90;;;;;;;;;;4967152;28;20246;-86
2024/01/08 05:23:57;;;;;;;4.47;4.07;;;0.40;99.20;;;;;;4965309;28;20875;-86
2024/01/08 05:26:23;;;;;;;4.60;4.00;;;;;;;;;;4972849;28;20852;-86
2024/01/08 05:28:49;;;;;;;5.10;4.15;;;0.30;99.10;;;;;;4967634;28;20645;-86
2024/01/08 05:31:15;;;;;;;5.90;4.50;;;1.80;99.90;;;;;;4968698;28;20192;-86
2024/01/08 05:33:40;;;;;;;5.10;4.60;;;0.40;99.30;;;;;;4965044;28;20196;-86
2024/01/08 05:36:06;;;;;;;4.20;3.80;;;0.30;99.90;;;;;;4972443;28;20188;-87
2024/01/08 05:38:32;;;;;;;5.13;4.20;;;0.40;99.90;;;;;;4971422;28;20569;-86
2024/01/08 05:40:58;;;;;;;4.40;4.00;;;;;;;;;;4969603;28;20199;-86
2024/01/08 05:43:24;;;;;;;4.15;3.72;;;;;;;;;;4967634;28;20230;-86
2024/01/08 05:45:49;;;;;;;5.50;4.50;;;0.30;99.90;;;;;;4970321;28;20217;-86
2024/01/08 05:48:15;;;;;;;4.63;4.00;;;0.20;99.90;;;;;;4967727;28;20200;-87
2024/01/08 05:50:41;;;;;;;4.67;4.27;;;;;;;;;;4967027;28;20184;-86
2024/01/08 05:53:07;;;;;;;4.60;3.90;;;0.40;99.40;;;;;;4976187;28;20664;-87
2024/01/08 05:55:54;;;;;;;4.30;3.90;;;0.10;99.90;;;;;;4986344;28;20212;-88
2024/01/08 05:58:19;;;;;;;4.85;4.20;;;1.20;99.90;;;;;;4990787;28;20460;-88
2024/01/08 06:00:45;;;;;;;4.90;4.40;;;-0.10;99.90;;;;;;4984979;28;20186;-88
2024/01/08 06:03:10;;;;;;;5.80;4.60;;;0.20;99.90;;;;;;4982186;28;20268;-88
2024/01/08 06:05:36;;;;;;;4.10;3.70;;;;;;;;;;4993803;28;20219;-87
2024/01/08 06:08:08;;;;;;;5.65;3.97;;;0.40;99.20;;;;;;4999642;28;20183;-88
2024/01/08 06:10:34;;;;;;;4.03;3.63;;;1.00;99.50;;;;;;4986670;28;20263;-88
2024/01/08 06:13:00;;;;;;;4.85;3.40;;;-0.50;98.80;;;;;;4998289;28;20177;-89
2024/01/08 06:15:26;;;;;;;4.60;3.37;;;;;;;;;;4993632;28;20203;-89
2024/01/08 06:17:51;;;;;;;6.35;3.90;;;0.40;98.30;;;;;;4991329;28;20212;-88
2024/01/08 06:20:21;;;;;;;10.57;3.57;;;0.00;99.20;;;;;;4983166;28;20193;-88
2024/01/08 06:22:50;;;;;;;4.07;3.60;;;-0.10;98.00;;;;;;4966004;28;20246;-88
2024/01/08 06:25:16;;;;;;;3.65;3.35;;;-0.90;97.50;;;;;;4964180;28;20225;-88
2024/01/08 06:27:41;;;;;;;3.83;3.03;;;-0.50;98.10;;;;;;4967834;28;20280;-87
2024/01/08 06:30:09;;;;;;;3.67;3.33;;;1.60;98.50;;;;;;4965287;28;20191;-90
2024/01/08 06:32:35;;;;;;;4.03;3.63;;;0.60;98.70;;;;;;4968082;28;20220;-90
2024/01/08 06:35:01;;;;;;;4.93;3.70;;;-0.20;97.50;;;;;;4972416;28;20677;-90
2024/01/08 06:37:28;;;;;;;3.97;3.53;;;0.50;98.20;;;;;;4954282;28;20201;-90
2024/01/08 06:39:53;;;;;;;4.30;3.38;;;0.30;97.70;;;;;;4971992;28;20620;-90
2024/01/08 06:42:19;;;;;;;3.67;3.20;;;1.20;98.40;;;;;;4971434;28;20406;-90
2024/01/08 06:44:46;;;;;;;4.70;4.20;;;1.60;99.10;;;;;;4967956;28;20219;-90
2024/01/08 06:47:12;;;;;;;4.57;3.10;;;0.60;97.50;;;;;;4988564;28;20470;-89
2024/01/08 06:49:40;;;;;;;7.10;4.10;;;1.30;97.80;;;;;;4987457;28;20197;-90
2024/01/08 06:52:06;;;;;;;4.63;3.53;;;1.00;97.60;;;;;;4980238;28;20354;-91
2024/01/08 06:54:34;;;;;;;3.90;3.23;;;0.20;95.70;;;;;;4975926;28;20201;-91
2024/01/08 06:57:02;;;;;;;3.60;3.22;;;-0.60;96.20;;;;;;4970358;28;20441;-90
2024/01/08 06:59:29;;;;;;;3.67;3.38;;;0.00;95.80;;;;;;4972049;28;20189;-90
2024/01/08 07:01:55;;;;;;;5.07;3.83;;;-1.00;96.70;;;;;;4973443;28;20185;-91
2024/01/08 07:04:21;;;;;;;6.13;3.20;;;;;;;;;;4972770;28;21336;-91
2024/01/08 07:06:49;;;;;;;3.88;3.25;;;0.00;95.80;;;;;;4986196;28;20195;-90
2024/01/08 07:09:15;;;;;;;3.80;3.50;;;0.40;98.70;;;;;;4987260;28;20177;-90
2024/01/08 07:11:42;;;;;;;3.90;3.50;;;0.10;95.90;;;;;;4970111;28;20247;-91
2024/01/08 07:14:08;;;;;;;3.70;3.40;;;0.20;97.80;;;;;;4966319;28;20564;-91
2024/01/08 07:16:34;;;;;;;4.25;3.85;;;;;;;;;;4949095;28;20243;-89
2024/01/08 07:19:01;;;;;;;5.57;3.80;;;-0.10;96.10;;;;;;4965109;28;20248;-89
2024/01/08 07:21:30;;;;;;;3.85;3.55;;;0.00;96.80;;;;;;4951721;28;20193;-90
2024/01/08 07:23:56;;;;;;;3.70;3.40;;;0.20;96.30;;;;;;4964840;28;20188;-89
2024/01/08 07:26:22;;;;;;;3.95;3.60;;;-0.80;96.70;;;;;;4970530;28;20288;-89
2024/01/08 07:28:50;;;;;;;3.90;3.50;;;0.60;97.40;;;;;;4965374;28;20407;-89
2024/01/08 07:31:16;;;;;;;3.90;3.20;;;-0.10;97.00;;;;;;4968998;28;20192;-89
2024/01/08 07:33:44;;;;;;;3.47;3.17;;;;;;;;;;4962232;28;20224;-90
2024/01/08 07:36:13;;;;;;;4.68;3.75;;;0.50;95.90;;;;;;4976670;28;20212;-90
2024/01/08 07:38:39;;;;;;;5.85;3.78;;;0.60;96.70;;;;;;4980388;28;20211;-90
2024/01/08 07:41:07;;;;;;;3.70;3.10;;;0.00;97.00;;;;;;4985660;28;20185;-90
2024/01/08 07:43:33;;;;;;;4.18;3.72;;;0.10;97.50;;;;;;4987513;28;20212;-90
2024/01/08 07:45:58;;;;;;;5.47;3.60;;;-0.40;96.80;;;;;;4954026;28;20263;-90
2024/01/08 07:48:24;;;;;;;4.60;4.10;;;;;;;;;;4970911;28;20177;-90
2024/01/08 07:50:50;;;;;;;7.90;4.05;;;0.20;96.20;;;;;;4968469;28;20189;-90
2024/01/08 07:53:16;;;;;;;6.50;3.93;;;-0.20;96.90;;;;;;4971225;28;20180;-90
2024/01/08 07:55:45;;;;;;;5.13;3.50;;;1.30;98.00;;;;;;4966009;28;20296;-90
2024/01/08 07:58:22;;;;;;;4.35;3.45;;;1.20;96.60;;;;;;4973618;28;20188;-91
2024/01/08 08:00:48;;;;;;;5.45;3.63;;;0.90;97.20;;;;;;4952012;28;20193;-90
2024/01/08 08:03:14;;;;;;;4.40;3.73;;;;;;;;;;4956808;28;20245;-90
2024/01/08 08:05:40;;;;;;;4.68;3.63;;;0.60;96.20;;;;;;4971083;28;20225;-91
2024/01/08 08:08:06;;;;;;;6.07;4.40;;;0.40;97.30;;;;;;4969156;28;20192;-91
2024/01/08 08:10:32;;;;;;;3.90;3.50;;;0.20;96.90;;;;;;4977425;28;20219;-91
2024/01/08 08:12:58;;;;;;;4.40;3.43;;;-0.10;95.70;;;;;;4988043;28;20184;-90
2024/01/08 08:15:24;;;;;;;4.50;3.67;;;-0.20;96.20;;;;;;4983288;28;20225;-91
2024/01/08 08:17:51;;;;;;;3.88;3.42;;;;;;;;;;4969365;28;20185;-90
2024/01/08 08:20:16;;;;;;;4.55;3.83;;;0.50;95.00;;;;;;4970893;28;20196;-89
2024/01/08 08:22:42;;;;;;;5.00;3.67;;;2.40;97.10;;;;;;4965070;28;20309;-90
2024/01/08 08:25:08;;;;;;;4.63;4.13;;;;;;;;;;4986216;23;20570;-91
2024/01/08 08:27:35;;;;;;;4.55;4.13;;;0.30;95.30;;;;;;4973114;28;20199;-89
2024/01/08 08:30:01;;;;;;;5.47;4.03;;;2.00;97.40;;;;;;4985035;28;20211;-91
2024/01/08 08:32:27;;;;;;;8.30;5.80;;;;;;;;;;5010000;28;20195;-91
2024/01/08 08:34:53;;;;;;;4.68;3.38;;;0.30;95.00;;;;;;4970367;28;20201;-90
2024/01/08 08:37:19;;;;;;;4.18;3.78;;;0.00;95.70;;;;;;4966867;28;20181;-91
2024/01/08 08:39:44;;;;;;;4.30;3.60;;;1.70;96.90;;;;;;4955868;28;20204;-89
2024/01/08 08:42:11;;;;;;;4.33;3.47;;;;;;;;;;4956328;28;20429;-89
2024/01/08 08:44:37;;;;;;;4.15;3.75;;;0.20;95.20;;;;;;4960672;28;20209;-89
2024/01/08 08:47:03;;;;;;;5.63;4.10;;;1.10;96.30;;;;;;4984082;28;20227;-89
2024/01/08 08:49:29;;;;;;;5.45;3.70;;;1.50;96.80;;;;;;4975677;28;20750;-89
2024/01/08 08:51:55;;;;;;;4.33;3.70;;;-0.60;95.50;;;;;;4968412;28;20212;-89
2024/01/08 08:54:21;;;;;;;4.50;3.60;;;0.80;96.40;;;;;;4959724;28;20535;-90
2024/01/08 08:56:47;;;;;;;4.10;3.33;;;;;;;;;;4955035;28;20196;-90
2024/01/08 08:59:12;;;;;;;4.97;3.88;;;0.40;95.30;;;;;;4957050;28;20193;-90
2024/01/08 09:01:38;;;;;;;6.60;3.93;;;;;;;;;;4956035;28;20187;-90
2024/01/08 09:04:04;;;;;;;4.00;3.70;;;0.40;95.30;;;;;;4956171;28;20733;-90
2024/01/08 09:06:33;;;;;;;4.00;3.60;;;;;;;;;;4957941;28;20263;-91
2024/01/08 09:08:59;;;;;;;4.68;3.90;;;0.40;95.10;;;;;;4955571;28;20185;-91
2024/01/08 09:11:25;;;;;;;3.55;3.08;;;-0.10;96.00;;;;;;4956465;28;20617;-91
2024/01/08 09:13:51;;;;;;;4.40;3.90;;;;;;;;;;4939650;28;20446;-91
2024/01/08 09:16:18;;;;;;;3.58;2.97;;;0.40;94.90;;;;;;4969638;28;20468;-90
2024/01/08 09:18:47;;;;;;;4.82;4.10;;;1.00;96.60;;;;;;4977945;28;20193;-91
2024/01/08 09:21:14;;;;;;;5.35;4.10;;;0.20;95.80;;;;;;4945754;28;20196;-90
2024/01/08 09:23:41;;;;;;;4.68;3.30;;;0.60;95.10;;;;;;4957253;28;20196;-91
2024/01/08 09:26:09;;;;;;;4.10;3.33;;;0.60;96.10;;;;;;4973225;28;20248;-91
2024/01/08 09:28:35;;;;;;;4.20;3.45;;;0.60;96.40;;;;;;4964600;28;20574;-90
2024/01/08 09:31:02;;;;;;;4.07;3.60;;;0.50;94.90;;;;;;4941807;29;20200;-90
2024/01/08 09:33:28;;;;;;;4.40;3.63;;;2.40;96.60;;;;;;4956282;28;20237;-90
2024/01/08 09:35:54;;;;;;;5.20;3.67;;;-0.10;95.70;;;;;;4955199;28;20220;-90
2024/01/08 09:38:20;;;;;;;4.20;3.15;;;0.30;96.50;;;;;;4989686;28;20445;-90
2024/01/08 09:40:47;;;;;;;4.07;3.60;;;0.80;96.20;;;;;;4953476;28;20185;-90
2024/01/08 09:43:16;;;;;;;4.93;3.50;;;-0.70;95.30;;;;;;4976752;28;20200;-90
2024/01/08 09:46:05;;;;;;;7.53;4.70;;;0.60;95.80;;;;;;4972042;28;20264;-90
2024/01/08 09:48:34;;;;;;;4.30;3.75;;;0.70;95.20;;;;;;4971248;28;20224;-90
2024/01/08 09:51:00;;;;;;;5.40;3.55;;;0.90;95.50;;;;;;4970026;28;20597;-89
2024/01/08 09:53:29;;;;;;;4.38;3.67;;;-0.10;96.80;;;;;;4963742;28;20212;-90
2024/01/08 09:55:55;;;;;;;3.50;3.20;;;0.60;94.90;;;;;;4964504;28;20212;-89
2024/01/08 09:58:21;;;;;;;3.90;3.50;;;0.30;95.30;;;;;;4957531;28;20349;-89
2024/01/08 10:00:47;;;;;;;4.97;3.90;;;0.70;96.40;;;;;;4977007;28;20170;-89
2024/01/08 10:03:13;;;;;;;5.70;4.40;;;1.60;97.00;;;;;;4978458;28;20192;-89
2024/01/08 10:05:39;;;;;;;5.67;4.40;;;1.30;97.30;;;;;;4979954;28;20225;-90
2024/01/08 10:08:05;;;;;;;4.30;3.47;;;0.50;96.50;;;;;;4962555;28;20459;-89
2024/01/08 10:10:31;;;;;;;4.10;3.53;;;0.70;96.40;;;;;;4978678;28;20182;-90
2024/01/08 10:12:58;;;;;;;4.38;3.85;;;1.00;95.50;;;;;;4983648;28;20268;-90
2024/01/08 10:15:24;;;;;;;3.78;3.28;;;1.70;96.30;;;;;;4979444;28;20209;-90
2024/01/08 10:17:59;;;;;;;4.00;3.60;;;-0.20;94.90;;;;;;4980309;28;20184;-90
2024/01/08 10:20:25;;;;;;;5.32;3.45;;;-0.10;95.10;;;;;;4982336;28;20590;-89
2024/01/08 10:23:08;;;;;;;3.35;3.05;;;0.70;93.70;;;;;;4946784;28;20207;-90
2024/01/08 10:25:37;;;;;;;3.50;3.20;;;-0.30;93.70;;;;;;4981377;28;20236;-90
2024/01/08 10:28:03;;;;;;;5.40;2.92;;;0.60;94.50;;;;;;4983533;28;20181;-89
2024/01/08 10:30:29;;;;;;;4.22;3.10;;;;;;;;;;4978136;28;20177;-89
2024/01/08 10:32:59;;;;;;;5.97;4.60;;;0.50;94.00;;;;;;4979436;28;20245;-89
2024/01/08 10:35:28;;;;;;;5.30;3.88;;;0.20;94.50;;;;;;4982237;28;20192;-90
2024/01/08 10:37:56;;;;;;;4.22;3.75;;;1.90;95.30;;;;;;4979462;28;20181;-90
2024/01/08 10:40:22;;;;;;;3.38;3.08;;;0.70;94.20;;;;;;4964574;28;20185;-90
2024/01/08 10:42:48;;;;;;;5.53;4.20;;;2.20;95.00;;;;;;4981391;28;20191;-90
2024/01/08 10:45:14;;;;;;;4.03;3.63;;;-0.20;94.20;;;;;;4976385;28;20738;-89
2024/01/08 10:47:49;;;;;;;4.10;3.70;;;0.90;93.50;;;;;;4980231;28;20458;-89
2024/01/08 10:50:19;;;;;;;4.78;3.80;;;0.20;93.40;;;;;;4966001;28;20201;-90
2024/01/08 10:52:53;;;;;;;6.45;3.97;;;0.50;94.60;;;;;;4963898;28;20216;-90
2024/01/08 10:55:20;;;;;;;5.85;3.15;;;;;;;;;;4960155;28;20236;-90
2024/01/08 10:58:07;;;;;;;4.90;3.85;;;1.00;93.60;;;;;;4958665;28;20213;-90
2024/01/08 11:00:33;;;;;;;5.28;4.13;;;1.00;94.00;;;;;;4955880;28;20204;-89
2024/01/08 11:03:02;;;;;;;3.50;3.20;;;2.60;95.20;;;;;;4957678;28;20630;-90
2024/01/08 11:05:31;;;;;;;4.88;4.03;;;0.20;93.70;;;;;;4959435;28;20232;-90
2024/01/08 11:07:57;;;;;;;3.90;3.50;;;2.10;94.50;;;;;;4958428;28;20189;-90
2024/01/08 11:10:23;;;;;;;3.70;3.40;;;2.60;94.90;;;;;;4951947;28;20233;-91
2024/01/08 11:12:56;;;;;;;3.35;3.05;;;0.90;95.10;;;;;;4956647;28;20212;-90
2024/01/08 11:15:27;;;;;;;5.22;3.80;;;1.30;94.60;;;;;;4956748;28;20209;-90
2024/01/08 11:17:54;;;;;;;4.60;3.80;;;2.10;94.80;;;;;;4966077;28;20390;-90
2024/01/08 11:20:46;;;;;;;4.40;3.97;;;2.30;95.20;;;;;;4958257;28;20558;-90
2024/01/08 11:23:36;;;;;;;4.57;4.13;;;0.90;94.00;;;;;;4957404;28;20310;-90
2024/01/08 11:26:03;;;;;;;4.03;3.28;;;0.70;94.20;;;;;;4957051;28;20328;-89
2024/01/08 11:28:32;;;;;;;5.18;3.75;;;0.70;94.30;;;;;;4959202;28;20276;-89
2024/01/08 11:31:07;;;;;;;4.30;3.53;;;1.40;94.50;;;;;;4961067;28;20271;-89
2024/01/08 11:34:09;;;;;;;4.70;4.03;;;2.60;95.60;;;;;;4958310;28;20184;-89
2024/01/08 11:36:47;;;;;;;4.78;3.67;;;1.20;94.00;;;;;;4969004;28;20185;-89
2024/01/08 11:39:19;;;;;;;4.35;3.67;;;0.90;93.80;;;;;;4962158;28;20322;-89
2024/01/08 11:41:48;;;;;;;4.13;3.72;;;1.10;93.80;;;;;;4964444;28;20189;-90
2024/01/08 11:44:14;;;;;;;4.05;3.35;;;1.20;92.60;;;;;;4976066;28;20221;-90
2024/01/08 11:46:44;;;;;;;3.63;3.23;;;0.40;93.80;;;;;;4964557;28;20347;-89
2024/01/08 11:49:11;;;;;;;5.72;3.42;;;;;;;;;;4960140;28;20452;-89
2024/01/08 11:51:41;;;;;;;4.00;3.47;;;1.30;92.80;;;;;;4963000;28;20241;-90
2024/01/08 11:54:13;;;;;;;3.22;2.92;;;0.30;92.40;;;;;;4966420;28;20259;-90
2024/01/08 11:56:42;;;;;;;4.40;4.00;;;1.50;93.60;;;;;;4959202;28;20185;-90
2024/01/08 11:59:09;;;;;;;4.90;4.00;;;1.80;93.80;;;;;;4957341;28;20223;-90
2024/01/08 12:01:35;;;;;;;3.83;3.30;;;;;;;;;;4959256;28;20212;-89
2024/01/08 12:04:01;;;;;;;2.90;2.70;;;1.50;91.90;;;;;;4960225;28;20213;-90
2024/01/08 12:06:27;;;;;;;4.27;3.53;;;;;;;;;;4964475;28;20239;-90
2024/01/08 12:08:56;;;;;;;4.43;3.95;;;1.40;92.00;;;;;;4969358;28;20446;-89
2024/01/08 12:11:40;;;;;;;4.63;3.75;;;1.50;93.80;;;;;;4994116;28;20212;-89
2024/01/08 12:14:05;;;;;;;4.95;3.20;;;2.70;93.60;;;;;;4962236;28;20209;-89
2024/01/08 12:16:31;;;;;;;4.13;3.37;;;;;;;;;;4960234;28;20189;-89
2024/01/08 12:18:59;;;;;;;3.90;3.45;;;2.00;92.50;;;;;;4961661;28;20194;-89
2024/01/08 12:21:25;;;;;;;5.68;3.80;;;2.80;93.70;;;;;;4969360;28;20193;-89
2024/01/08 12:23:53;;;;;;;3.80;3.43;;;1.70;91.60;;;;;;4969680;28;20190;-90
2024/01/08 12:26:20;;;;;;;4.45;4.05;;;1.10;92.60;;;;;;4978121;28;20483;-90
2024/01/08 12:28:46;;;;;;;5.00;4.47;;;1.60;92.60;;;;;;4948919;28;20189;-89
2024/01/08 12:31:14;;;;;;;4.30;3.80;;;1.70;91.90;;;;;;4939866;28;20225;-89
2024/01/08 12:33:42;;;;;;;3.97;3.47;;;1.50;91.50;;;;;;4962432;28;20818;-91
2024/01/08 12:36:09;;;;;;;4.22;3.33;;;0.70;92.60;;;;;;4953094;28;20185;-89
2024/01/08 12:38:35;;;;;;;3.90;3.38;;;3.10;93.20;;;;;;4958282;28;20215;-89
2024/01/08 12:41:01;;;;;;;5.43;3.30;;;;;;;;;;4940197;28;20193;-89
2024/01/08 12:43:28;;;;;;;3.42;3.13;;;1.20;91.90;;;;;;4958324;28;20479;-89
2024/01/08 12:45:54;;;;;;;4.15;3.25;;;0.90;92.80;;;;;;4956409;28;20220;-89
2024/01/08 12:55:14;;;;;;;4.05;3.65;;;2.00;93.60;;;;;;4919775;28;20224;-89
2024/01/08 12:57:39;;;;;;;4.95;3.97;;;2.40;93.00;;;;;;4952708;28;20226;-89
2024/01/08 13:00:10;;;;;;;4.20;3.80;;;1.00;92.40;;;;;;4956250;28;20217;-89
2024/01/08 13:02:41;;;;;;;4.05;3.65;;;2.10;93.80;;;;;;4971919;28;20173;-89
2024/01/08 13:05:07;;;;;;;5.10;3.63;;;3.00;94.60;;;;;;4975472;28;20600;-89
2024/01/08 13:07:35;;;;;;;3.97;3.67;;;1.50;93.70;;;;;;4973791;28;20276;-90
2024/01/08 13:10:05;;;;;;;3.95;3.38;;;2.00;93.90;;;;;;4968428;28;20187;-89
2024/01/08 13:12:31;;;;;;;5.25;3.75;;;1.50;92.10;;;;;;4967623;28;20177;-89
2024/01/08 13:14:57;;;;;;;3.95;3.55;;;0.90;92.50;;;;;;4973874;28;20232;-89
2024/01/08 13:17:24;;;;;;;4.20;3.57;;;1.70;94.20;;;;;;4975842;28;20209;-89